Main page
METAR-TAF:

METAR-TAF

Airports :

Buckeye Municipal Airport

Buckeye, Arizona, United States

latitude: 33-25-14N, longitude: 112-41-10W, elevation: 1033 ft

Current weather observation

The report was made 13 minutes ago, at 01:35 UTC
Wind 14 mph from the Southwest
Temperature 64°F
Humidity 34%
Pressure 29.89 in. Hg
Visibility: 10 miles
Clear sky

METAR: KBXK 040135Z AUTO 22012KT 10SM CLR 18/02 A2989 RMK A01

Time: 18:48 (01:48 UTC)


TAF: missing

Weather observations and forecasts of more than 4000 airports (METAR and TAF reports).

The available stations are represented by yellow and red dots on the map.

Hover mouse over dot to see the name of the station.

Then click to see weather observations and forecasts.

To change the map : click on the green buttons with a black cross to zoom in, on the green button with a dash to zoom out, or on the green arrows for adjacent maps.


METAR-TAF: